createdAt,value
2023-11-12T00:01:51.339Z,99825.31
2023-11-12T00:04:23.563Z,99824.50
2023-11-12T00:06:53.210Z,99826.72
2023-11-12T00:09:23.083Z,99823.00
2023-11-12T00:11:52.852Z,99820.13
2023-11-12T00:14:22.578Z,99828.84
2023-11-12T00:16:52.338Z,99828.00
2023-11-12T00:19:25.050Z,99830.50
2023-11-12T00:21:54.735Z,99833.22
2023-11-12T00:24:24.336Z,99833.75
2023-11-12T00:26:53.970Z,99835.81
2023-11-12T00:29:23.537Z,99834.22
2023-11-12T00:31:53.367Z,99828.91
2023-11-12T00:34:25.558Z,99832.19
2023-11-12T00:36:55.117Z,99835.44
2023-11-12T00:39:24.758Z,99837.38
2023-11-12T00:41:54.329Z,99837.75
2023-11-12T00:44:25.647Z,99832.75
2023-11-12T00:46:55.327Z,99835.91
2023-11-12T00:49:27.561Z,99830.31
2023-11-12T00:51:57.197Z,99830.06
2023-11-12T00:54:27.406Z,99830.69
2023-11-12T00:56:56.994Z,99833.28
2023-11-12T00:59:26.610Z,99836.91
2023-11-12T01:01:56.286Z,99831.91
2023-11-12T01:04:29.146Z,99836.66
2023-11-12T01:06:58.809Z,99833.22
2023-11-12T01:09:29.638Z,99834.50
2023-11-12T01:11:59.453Z,99838.97
2023-11-12T01:14:29.989Z,99847.69
2023-11-12T01:16:59.761Z,99841.22
2023-11-12T01:19:31.974Z,99843.81
2023-11-12T01:22:02.567Z,99834.44
2023-11-12T01:24:32.274Z,99839.19
2023-11-12T01:27:03.614Z,99829.06
2023-11-12T01:29:33.370Z,99837.22
2023-11-12T01:32:03.708Z,99837.69
2023-11-12T01:34:35.856Z,99832.69
2023-11-12T01:37:05.869Z,99838.91
2023-11-12T01:39:35.482Z,99837.97
2023-11-12T01:42:12.950Z,99832.13
2023-11-12T01:44:43.408Z,99836.97
2023-11-12T01:47:14.420Z,99826.56
2023-11-12T01:49:46.810Z,99805.25
2023-11-12T01:52:18.069Z,99830.56
2023-11-12T01:54:48.092Z,99828.63
2023-11-12T01:57:17.710Z,99824.72
2023-11-12T01:59:47.411Z,99823.69
2023-11-12T02:02:17.170Z,99830.56
2023-11-12T02:04:52.082Z,99829.91
2023-11-12T02:07:22.598Z,99832.97
2023-11-12T02:09:56.332Z,99827.41
2023-11-12T02:12:26.143Z,99835.75
2023-11-12T02:14:56.514Z,99827.41
2023-11-12T02:17:27.706Z,99828.44
2023-11-12T02:20:06.315Z,99834.84
2023-11-12T02:22:36.770Z,99833.19
2023-11-12T02:25:09.579Z,99837.47
2023-11-12T02:27:40.073Z,99834.97
2023-11-12T02:30:12.862Z,99838.94
2023-11-12T02:32:43.591Z,99834.97
2023-11-12T02:35:14.272Z,99838.88
2023-11-12T02:37:43.896Z,99839.31
2023-11-12T02:40:17.692Z,99840.53
2023-11-12T02:42:49.146Z,99841.72
2023-11-12T02:45:19.524Z,99840.53
2023-11-12T02:47:49.213Z,99836.72
2023-11-12T02:50:28.749Z,99839.78
2023-11-12T02:52:59.288Z,99845.84
2023-11-12T02:55:32.114Z,99844.81
2023-11-12T02:58:06.704Z,99844.00
2023-11-12T03:00:36.772Z,99836.72
2023-11-12T03:03:06.662Z,99838.03
2023-11-12T03:05:36.924Z,99847.78
2023-11-12T03:08:06.959Z,99840.34
2023-11-12T03:10:43.670Z,99844.50
2023-11-12T03:13:13.374Z,99849.72
2023-11-12T03:15:43.839Z,99847.88
2023-11-12T03:18:13.675Z,99848.25
2023-11-12T03:20:43.392Z,99848.03
2023-11-12T03:23:13.033Z,99854.44
2023-11-12T03:25:45.246Z,99848.25
2023-11-12T03:28:14.845Z,99850.25
2023-11-12T03:30:44.601Z,99847.03
2023-11-12T03:33:14.444Z,99844.88
2023-11-12T03:35:44.371Z,99840.91
2023-11-12T03:38:14.010Z,99841.66
2023-11-12T03:40:46.369Z,99846.34
2023-11-12T03:43:16.013Z,99853.34
2023-11-12T03:45:45.881Z,99849.53
2023-11-12T03:48:15.591Z,99851.13
2023-11-12T03:50:45.638Z,99860.88
2023-11-12T03:53:15.256Z,99849.47
2023-11-12T03:55:47.631Z,99854.66
2023-11-12T03:58:17.238Z,99853.91
2023-11-12T04:00:46.891Z,99852.19
2023-11-12T04:03:18.665Z,99861.25
2023-11-12T04:05:48.356Z,99856.72
2023-11-12T04:08:18.076Z,99861.16
2023-11-12T04:10:50.816Z,99866.06
2023-11-12T04:13:20.494Z,99861.84
2023-11-12T04:15:50.150Z,99861.28
2023-11-12T04:18:19.825Z,99860.63
2023-11-12T04:20:49.490Z,99861.00
2023-11-12T04:23:19.180Z,99857.84
2023-11-12T04:25:51.874Z,99860.44
2023-11-12T04:28:27.029Z,99865.72
2023-11-12T04:30:57.441Z,99863.84
2023-11-12T04:33:27.159Z,99862.47
2023-11-12T04:35:56.814Z,99866.28
2023-11-12T04:38:26.637Z,99864.75
2023-11-12T04:40:58.870Z,99865.44
2023-11-12T04:43:28.530Z,99869.31
2023-11-12T04:45:58.207Z,99873.66
2023-11-12T04:48:27.907Z,99870.72
2023-11-12T04:50:57.550Z,99870.97
2023-11-12T04:53:27.085Z,99875.25
2023-11-12T04:55:59.340Z,99876.09
2023-11-12T04:58:28.922Z,99880.25
2023-11-12T05:00:59.183Z,99884.16
2023-11-12T05:03:28.902Z,99879.78
2023-11-12T05:05:58.497Z,99882.47
2023-11-12T05:08:28.104Z,99881.94
2023-11-12T05:11:00.386Z,99882.41
2023-11-12T05:13:30.070Z,99880.75
2023-11-12T05:15:59.791Z,99877.41
2023-11-12T05:18:29.539Z,99887.50
2023-11-12T05:20:59.270Z,99882.13
2023-11-12T05:23:28.930Z,99885.28
2023-11-12T05:26:01.339Z,99892.88
2023-11-12T05:28:31.190Z,99890.84
2023-11-12T05:31:00.968Z,99896.97
2023-11-12T05:33:30.630Z,99897.97
2023-11-12T05:36:00.252Z,99895.13
2023-11-12T05:38:29.808Z,99891.59
2023-11-12T05:41:04.601Z,99897.97
2023-11-12T05:43:34.277Z,99900.38
2023-11-12T05:46:03.962Z,99901.56
2023-11-12T05:48:33.618Z,99898.06
2023-11-12T05:51:03.683Z,99903.63
2023-11-12T05:53:33.361Z,99898.72
2023-11-12T05:56:05.870Z,99909.47
2023-11-12T05:58:35.482Z,99898.44
2023-11-12T06:01:05.199Z,99896.38
2023-11-12T06:03:34.990Z,99896.56
2023-11-12T06:06:04.669Z,99898.22
2023-11-12T06:08:34.218Z,99910.84
2023-11-12T06:11:07.535Z,99910.94
2023-11-12T06:13:37.246Z,99906.78
2023-11-12T06:16:07.538Z,99912.78
2023-11-12T06:18:37.178Z,99908.56
2023-11-12T06:21:07.604Z,99914.59
2023-11-12T06:23:42.925Z,99911.91
2023-11-12T06:26:15.113Z,99922.00
2023-11-12T06:28:44.697Z,99919.13
2023-11-12T06:31:14.381Z,99921.44
2023-11-12T06:33:44.819Z,99921.66
2023-11-12T06:36:15.444Z,99918.28
2023-11-12T06:38:45.100Z,99916.06
2023-11-12T06:41:17.332Z,99916.53
2023-11-12T06:43:46.974Z,99916.66
2023-11-12T06:46:16.597Z,99916.44
2023-11-12T06:48:46.699Z,99918.13
2023-11-12T06:51:24.133Z,99929.41
2023-11-12T06:53:53.782Z,99936.13
2023-11-12T06:56:26.422Z,99926.00
2023-11-12T06:58:56.214Z,99930.47
2023-11-12T07:01:25.848Z,99933.81
2023-11-12T07:03:55.586Z,99939.38
2023-11-12T07:06:25.312Z,99946.97
2023-11-12T07:08:54.891Z,99943.09
2023-11-12T07:11:27.230Z,99945.78
2023-11-12T07:13:56.859Z,99953.22
2023-11-12T07:16:26.936Z,99949.31
2023-11-12T07:18:57.207Z,99954.03
2023-11-12T07:21:28.355Z,99957.75
2023-11-12T07:23:58.547Z,99958.22
2023-11-12T07:26:31.144Z,99963.59
2023-11-12T07:29:01.184Z,99966.28
2023-11-12T07:31:30.883Z,99964.91
2023-11-12T07:34:01.497Z,99971.56
2023-11-12T07:36:31.092Z,99958.78
2023-11-12T07:39:02.932Z,99967.63
2023-11-12T07:41:39.196Z,99968.88
2023-11-12T07:44:09.709Z,99971.59
2023-11-12T07:46:44.020Z,99972.25
2023-11-12T07:49:13.734Z,99970.50
2023-11-12T07:51:43.355Z,99961.94
2023-11-12T07:54:13.099Z,99962.78
2023-11-12T07:56:45.646Z,99975.88
2023-11-12T07:59:15.362Z,99981.63
2023-11-12T08:01:45.976Z,99991.38
2023-11-12T08:04:15.705Z,99997.22
2023-11-12T08:06:49.843Z,99994.63
2023-11-12T08:09:21.198Z,100002.44
2023-11-12T08:11:53.513Z,99993.31
2023-11-12T08:14:23.064Z,99997.50
2023-11-12T08:16:52.734Z,100005.50
2023-11-12T08:19:22.454Z,100005.59
2023-11-12T08:21:52.064Z,100004.09
2023-11-12T08:24:21.702Z,99994.16
2023-11-12T08:26:53.934Z,100002.91
2023-11-12T08:29:23.806Z,99999.00
2023-11-12T08:31:53.829Z,100012.47
2023-11-12T08:34:23.589Z,100004.66
2023-11-12T08:36:53.700Z,100005.28
2023-11-12T08:39:24.356Z,100014.97
2023-11-12T08:41:56.550Z,100007.31
2023-11-12T08:44:26.134Z,100010.59
2023-11-12T08:46:55.944Z,100012.28
2023-11-12T08:49:26.898Z,100002.13
2023-11-12T08:51:56.497Z,100010.59
2023-11-12T08:54:26.420Z,100010.22
2023-11-12T08:56:58.832Z,100010.41
2023-11-12T08:59:28.952Z,100008.16
2023-11-12T09:01:58.758Z,100011.31
2023-11-12T09:04:28.941Z,100006.66
2023-11-12T09:06:58.765Z,100013.13
2023-11-12T09:09:28.487Z,100026.91
2023-11-12T09:12:00.926Z,100014.94
2023-11-12T09:14:36.863Z,100027.13
2023-11-12T09:17:08.125Z,100035.22
2023-11-12T09:19:37.753Z,100037.00
2023-11-12T09:22:09.393Z,100037.38
2023-11-12T09:24:51.464Z,100046.28
2023-11-12T09:27:31.701Z,100048.78
2023-11-12T09:30:01.410Z,100049.63
2023-11-12T09:32:31.410Z,100048.41
2023-11-12T09:35:02.071Z,100051.38
2023-11-12T09:37:32.111Z,100041.06
2023-11-12T09:40:01.782Z,100042.84
2023-11-12T09:42:33.992Z,100046.91
2023-11-12T09:45:06.657Z,100046.91
2023-11-12T09:47:47.358Z,100048.84
2023-11-12T09:50:17.205Z,100047.16
2023-11-12T09:52:49.755Z,100049.69
2023-11-12T09:55:20.998Z,100051.00
2023-11-12T09:57:53.578Z,100048.69
2023-11-12T10:00:23.503Z,100051.63
2023-11-12T10:02:53.617Z,100049.94
2023-11-12T10:05:24.516Z,100044.19
2023-11-12T10:07:54.926Z,100048.28
2023-11-12T10:10:26.068Z,100047.69
2023-11-12T10:12:58.537Z,100043.41
2023-11-12T10:15:29.070Z,100048.53
2023-11-12T10:18:02.219Z,100042.13
2023-11-12T10:20:34.857Z,100042.38
2023-11-12T10:23:05.268Z,100049.06
2023-11-12T10:25:45.255Z,100050.47
2023-11-12T10:28:17.536Z,100044.13
2023-11-12T10:30:48.706Z,100044.75
2023-11-12T10:33:24.894Z,100045.13
2023-11-12T10:35:56.862Z,100050.22
2023-11-12T10:38:26.742Z,100044.00
2023-11-12T10:41:03.936Z,100044.13
2023-11-12T10:43:37.148Z,100052.47
2023-11-12T10:46:08.529Z,100040.03
2023-11-12T10:48:39.774Z,100042.13
2023-11-12T10:51:11.690Z,100047.28
2023-11-12T10:53:42.295Z,100044.22
2023-11-12T10:56:11.863Z,100047.91
2023-11-12T10:58:46.084Z,100032.50
2023-11-12T11:01:17.912Z,100045.47
2023-11-12T11:03:49.638Z,100052.09
2023-11-12T11:06:21.570Z,100042.78
2023-11-12T11:08:51.253Z,100053.56
2023-11-12T11:11:22.587Z,100042.78
2023-11-12T11:13:54.759Z,100041.81
2023-11-12T11:16:48.931Z,100043.75
2023-11-12T11:19:19.201Z,100035.66
2023-11-12T11:22:18.685Z,100037.78
2023-11-12T11:24:48.916Z,100038.97
2023-11-12T11:27:20.227Z,100034.88
2023-11-12T11:30:13.676Z,100032.63
2023-11-12T11:33:01.463Z,100038.41
2023-11-12T11:35:31.572Z,100028.91
2023-11-12T11:38:13.423Z,100034.31
2023-11-12T11:40:46.259Z,100029.13
2023-11-12T11:43:38.302Z,100027.28
2023-11-12T11:46:15.216Z,100027.72
2023-11-12T11:49:14.965Z,100026.72
2023-11-12T11:51:50.419Z,100025.25
2023-11-12T11:54:20.797Z,100017.66
2023-11-12T11:56:50.633Z,100016.88
2023-11-12T11:59:21.669Z,100012.72
2023-11-12T12:01:54.823Z,100010.69
2023-11-12T12:04:24.671Z,100015.88
2023-11-12T12:06:54.368Z,100015.28
2023-11-12T12:09:25.361Z,100012.59
2023-11-12T12:11:56.420Z,100012.16
2023-11-12T12:14:27.855Z,100013.00
2023-11-12T12:17:09.123Z,100018.56
2023-11-12T12:19:39.357Z,100017.34
2023-11-12T12:22:09.106Z,100019.47
2023-11-12T12:24:39.087Z,100022.34
2023-11-12T12:27:10.977Z,100023.41
2023-11-12T12:29:41.426Z,100024.81
2023-11-12T12:32:21.828Z,100021.53
2023-11-12T12:34:57.949Z,100022.97
2023-11-12T12:37:32.305Z,100020.44
2023-11-12T12:40:08.131Z,100022.16
2023-11-12T12:42:38.090Z,100021.56
2023-11-12T12:45:17.544Z,100017.81
2023-11-12T12:47:50.436Z,100022.38
2023-11-12T12:50:26.951Z,100015.53
2023-11-12T12:53:14.801Z,100030.06
2023-11-12T12:55:45.360Z,100024.66
2023-11-12T12:58:15.570Z,100024.63
2023-11-12T13:00:46.804Z,100022.34
2023-11-12T13:03:28.403Z,100022.56
2023-11-12T13:06:01.326Z,100023.59
2023-11-12T13:08:31.535Z,100017.59
2023-11-12T13:11:01.507Z,100018.22
2023-11-12T13:13:32.228Z,100024.91
2023-11-12T13:16:03.048Z,100029.25
2023-11-12T13:18:35.294Z,100030.31
2023-11-12T13:21:06.787Z,100025.75
2023-11-12T13:23:37.922Z,100031.97
2023-11-12T13:26:07.778Z,100026.94
2023-11-12T13:28:37.450Z,100031.09
2023-11-12T13:31:07.998Z,100028.41
2023-11-12T13:33:42.494Z,100042.75
2023-11-12T13:36:12.487Z,100034.03
2023-11-12T13:38:42.324Z,100036.75
2023-11-12T13:41:16.037Z,100040.31
2023-11-12T13:43:46.538Z,100051.56
2023-11-12T13:46:16.216Z,100045.34
2023-11-12T13:48:49.599Z,100044.72
2023-11-12T13:51:19.790Z,100047.59
2023-11-12T13:53:50.883Z,100050.28
2023-11-12T13:56:22.623Z,100047.59
2023-11-12T13:58:52.656Z,100059.28
2023-11-12T14:01:23.668Z,100060.13
2023-11-12T14:03:56.762Z,100052.81
2023-11-12T14:06:26.519Z,100064.03
2023-11-12T14:08:56.466Z,100082.13
2023-11-12T14:11:26.080Z,100078.19
2023-11-12T14:13:57.043Z,100077.31
2023-11-12T14:16:26.840Z,100080.66
2023-11-12T14:18:59.148Z,100085.19
2023-11-12T14:21:29.533Z,100086.38
2023-11-12T14:24:00.474Z,100093.19
2023-11-12T14:26:30.103Z,100091.25
2023-11-12T14:29:01.359Z,100094.41
2023-11-12T14:31:31.741Z,100095.81
2023-11-12T14:34:05.125Z,100100.84
2023-11-12T14:36:36.472Z,100107.25
2023-11-12T14:39:10.397Z,100093.53
2023-11-12T14:41:42.032Z,100075.47
2023-11-12T14:44:12.242Z,100098.84
2023-11-12T14:46:42.097Z,100097.97
2023-11-12T14:49:14.296Z,100114.03
2023-11-12T14:51:48.706Z,100106.06
2023-11-12T14:54:20.756Z,100088.91
2023-11-12T14:56:53.924Z,100110.19
2023-11-12T14:59:23.721Z,100107.03
2023-11-12T15:01:53.987Z,100111.59
2023-11-12T15:04:27.786Z,100101.41
2023-11-12T15:06:57.521Z,100107.44
2023-11-12T15:09:27.219Z,100108.34
2023-11-12T15:11:56.854Z,100113.91
2023-11-12T15:14:26.428Z,100114.91
2023-11-12T15:16:58.969Z,100098.41
2023-11-12T15:19:32.378Z,100106.81
2023-11-12T15:22:02.431Z,100108.84
2023-11-12T15:24:32.415Z,100111.53
2023-11-12T15:27:02.424Z,100104.59
2023-11-12T15:29:32.079Z,100114.16
2023-11-12T15:32:01.716Z,100118.09
2023-11-12T15:34:33.848Z,100117.47
2023-11-12T15:37:03.478Z,100114.09
2023-11-12T15:39:33.138Z,100121.00
2023-11-12T15:42:02.795Z,100118.69
2023-11-12T15:44:32.463Z,100129.56
2023-11-12T15:47:02.729Z,100128.34
2023-11-12T15:49:35.064Z,100130.88
2023-11-12T15:54:47.165Z,100134.22
2023-11-12T15:57:17.005Z,100125.22
2023-11-12T15:59:46.598Z,100113.31
2023-11-12T16:02:16.149Z,100132.09
2023-11-12T16:04:48.407Z,100130.41
2023-11-12T16:07:18.275Z,100132.88
2023-11-12T16:09:48.160Z,100134.97
2023-11-12T16:12:17.924Z,100131.81
2023-11-12T16:14:47.501Z,100130.09
2023-11-12T16:17:17.054Z,100132.59
2023-11-12T16:19:49.229Z,100129.72
2023-11-12T16:22:19.991Z,100128.03
2023-11-12T16:24:49.683Z,100139.41
2023-11-12T16:27:22.932Z,100122.13
2023-11-12T16:29:52.852Z,100129.09
2023-11-12T16:32:24.535Z,100134.88
2023-11-12T16:34:56.891Z,100137.47
2023-11-12T16:37:26.553Z,100141.81
2023-11-12T16:39:56.840Z,100155.31
2023-11-12T16:42:26.524Z,100149.09
2023-11-12T16:44:56.585Z,100144.81
2023-11-12T16:47:26.468Z,100152.59
2023-11-12T16:49:58.661Z,100153.66
2023-11-12T16:52:29.862Z,100141.72
2023-11-12T16:54:59.841Z,100151.34
2023-11-12T16:57:29.571Z,100152.19
2023-11-12T17:00:00.457Z,100152.19
2023-11-12T17:02:31.300Z,100152.19
2023-11-12T17:05:03.676Z,100158.38
2023-11-12T17:07:33.312Z,100151.44
2023-11-12T17:10:03.234Z,100162.97
2023-11-12T17:12:34.096Z,100169.84
2023-11-12T17:15:05.117Z,100168.16
2023-11-12T17:17:34.832Z,100164.31
2023-11-12T17:20:07.738Z,100177.34
2023-11-12T17:22:37.453Z,100181.53
2023-11-12T17:25:08.658Z,100181.72
2023-11-12T17:27:38.367Z,100178.31
2023-11-12T17:30:09.980Z,100186.78
2023-11-12T17:32:39.767Z,100189.19
2023-11-12T17:35:16.192Z,100188.44
2023-11-12T17:37:46.061Z,100188.63
2023-11-12T17:40:16.749Z,100193.81
2023-11-12T17:42:46.488Z,100200.25
2023-11-12T17:45:17.007Z,100196.91
2023-11-12T17:47:46.655Z,100191.03
2023-11-12T17:50:19.223Z,100198.50
2023-11-12T17:52:49.360Z,100202.41
2023-11-12T17:55:21.226Z,100196.16
2023-11-12T17:57:50.966Z,100195.63
2023-11-12T18:00:23.228Z,100199.50
2023-11-12T18:02:52.870Z,100188.00
2023-11-12T18:05:26.339Z,100185.13
2023-11-12T18:07:56.512Z,100189.75
2023-11-12T18:10:26.107Z,100188.00
2023-11-12T18:12:59.598Z,100188.81
2023-11-12T18:15:30.042Z,100191.78
2023-11-12T18:17:59.691Z,100198.97
2023-11-12T18:20:33.052Z,100200.19
2023-11-12T18:23:02.638Z,100205.75
2023-11-12T18:25:34.521Z,100199.06
2023-11-12T18:28:05.704Z,100205.66
2023-11-12T18:30:35.452Z,100203.97
2023-11-12T18:33:05.121Z,100203.63
2023-11-12T18:35:37.432Z,100203.53
2023-11-12T18:38:09.061Z,100198.22
2023-11-12T18:40:41.702Z,100202.13
2023-11-12T18:43:12.246Z,100213.84
2023-11-12T18:45:42.011Z,100216.91
2023-11-12T18:48:12.125Z,100209.00
2023-11-12T18:50:45.512Z,100225.09
2023-11-12T18:53:15.861Z,100217.56
2023-11-12T18:55:46.203Z,100222.47
2023-11-12T18:58:18.011Z,100223.03
2023-11-12T19:00:48.396Z,100211.50
2023-11-12T19:03:21.130Z,100220.34
2023-11-12T19:05:53.650Z,100229.72
2023-11-12T19:08:23.260Z,100227.22
2023-11-12T19:10:53.037Z,100227.38
2023-11-12T19:13:22.935Z,100228.44
2023-11-12T19:15:57.164Z,100236.22
2023-11-12T19:18:26.962Z,100226.00
2023-11-12T19:20:59.206Z,100233.25
2023-11-12T19:23:28.829Z,100216.13
2023-11-12T19:25:58.523Z,100239.28
2023-11-12T19:28:28.111Z,100243.50
2023-11-12T19:30:57.834Z,100234.94
2023-11-12T19:33:27.555Z,100249.41
2023-11-12T19:35:59.737Z,100249.03
2023-11-12T19:38:30.519Z,100248.78
2023-11-12T19:41:00.102Z,100264.25
2023-11-12T19:43:29.708Z,100263.78
2023-11-12T19:45:59.318Z,100263.25
2023-11-12T19:48:28.911Z,100268.16
2023-11-12T19:51:01.133Z,100271.06
2023-11-12T19:53:30.938Z,100283.69
2023-11-12T19:56:00.643Z,100270.38
2023-11-12T19:58:37.856Z,100279.88
2023-11-12T20:01:08.091Z,100272.13
2023-11-12T20:03:37.778Z,100288.81
2023-11-12T20:06:13.053Z,100284.97
2023-11-12T20:08:42.682Z,100295.13
2023-11-12T20:11:14.607Z,100291.75
2023-11-12T20:13:44.206Z,100299.81
2023-11-12T20:16:14.639Z,100306.69
2023-11-12T20:18:44.417Z,100302.00
2023-11-12T20:21:16.733Z,100302.16
2023-11-12T20:23:53.736Z,100313.59
2023-11-12T20:26:23.956Z,100314.91
2023-11-12T20:28:53.577Z,100306.91
2023-11-12T20:31:24.980Z,100311.09
2023-11-12T20:33:56.299Z,100300.66
2023-11-12T20:36:28.615Z,100296.13
2023-11-12T20:38:58.210Z,100298.63
2023-11-12T20:41:27.827Z,100298.44
2023-11-12T20:43:58.787Z,100293.53
2023-11-12T20:46:28.638Z,100280.31
2023-11-12T20:49:00.796Z,100290.38
2023-11-12T20:51:33.053Z,100285.81
2023-11-12T20:54:03.214Z,100282.66
2023-11-12T20:56:37.898Z,100283.41
2023-11-12T20:59:08.195Z,100277.19
2023-11-12T21:01:37.945Z,100282.56
2023-11-12T21:04:12.404Z,100274.50
2023-11-12T21:06:46.614Z,100277.19
2023-11-12T21:09:16.590Z,100269.94
2023-11-12T21:11:48.779Z,100271.44
2023-11-12T21:14:21.023Z,100270.88
2023-11-12T21:16:50.718Z,100268.34
2023-11-12T21:19:20.374Z,100272.25
2023-11-12T21:21:54.604Z,100274.72
2023-11-12T21:24:24.246Z,100281.88
2023-11-12T21:26:54.293Z,100273.13
2023-11-12T21:29:32.824Z,100268.94
2023-11-12T21:32:03.701Z,100267.69
2023-11-12T21:34:33.480Z,100275.75
2023-11-12T21:37:06.933Z,100280.16
2023-11-12T21:39:37.184Z,100288.25
2023-11-12T21:42:08.263Z,100291.31
2023-11-12T21:44:37.986Z,100297.84
2023-11-12T21:47:07.698Z,100299.88
2023-11-12T21:49:37.421Z,100309.63
2023-11-12T21:52:11.339Z,100311.84
2023-11-12T21:54:41.268Z,100308.78
2023-11-12T21:57:10.914Z,100308.13
2023-11-12T21:59:44.749Z,100305.31
2023-11-12T22:02:14.762Z,100316.72
2023-11-12T22:04:44.445Z,100314.59
2023-11-12T22:07:16.738Z,100322.31
2023-11-12T22:09:46.422Z,100332.38
2023-11-12T22:12:16.037Z,100333.78
2023-11-12T22:14:45.895Z,100342.50
2023-11-12T22:17:15.715Z,100344.75
2023-11-12T22:19:45.387Z,100341.34
2023-11-12T22:22:17.725Z,100343.72
2023-11-12T22:24:47.397Z,100334.50
2023-11-12T22:27:17.157Z,100335.84
2023-11-12T22:29:47.204Z,100332.31
2023-11-12T22:32:18.182Z,100327.81
2023-11-12T22:34:49.416Z,100331.81
2023-11-12T22:37:21.590Z,100337.88
2023-11-12T22:39:51.248Z,100331.19
2023-11-12T22:42:20.865Z,100333.03
2023-11-12T22:44:51.308Z,100337.59
2023-11-12T22:47:20.926Z,100339.28
2023-11-12T22:49:50.789Z,100346.00
2023-11-12T22:52:23.522Z,100348.19
2023-11-12T22:54:53.717Z,100336.94
2023-11-12T22:57:23.823Z,100340.78
2023-11-12T22:59:54.138Z,100348.34
2023-11-12T23:02:24.155Z,100347.84
2023-11-12T23:04:53.828Z,100352.72
2023-11-12T23:07:28.062Z,100357.28
2023-11-12T23:10:08.339Z,100363.34
2023-11-12T23:12:38.463Z,100356.63
2023-11-12T23:15:09.910Z,100365.53
2023-11-12T23:17:39.594Z,100354.44
2023-11-12T23:20:10.522Z,100349.25
2023-11-12T23:22:43.218Z,100349.09
2023-11-12T23:25:13.044Z,100348.59
2023-11-12T23:27:42.780Z,100367.88
2023-11-12T23:30:14.120Z,100373.94
2023-11-12T23:32:45.212Z,100380.97
2023-11-12T23:35:15.902Z,100372.03
2023-11-12T23:37:48.962Z,100370.19
2023-11-12T23:40:20.008Z,100364.22
2023-11-12T23:42:49.728Z,100352.31
2023-11-12T23:45:19.586Z,100352.16
2023-11-12T23:47:49.267Z,100343.28
2023-11-12T23:50:19.110Z,100310.91
2023-11-12T23:52:51.345Z,100343.94
2023-11-12T23:55:21.312Z,100338.25
2023-11-12T23:57:51.081Z,100333.06
